Time;durP1;ratioP1;P1;durP2;ratioP2;P2;SDS_P1;SDS_P2;PMS_P1;PMS_P2;Temp;Humidity;BMP_temperature;BMP_pressure;BME280_temperature;BME280_humidity;BME280_pressure;Samples;Min_cycle;Max_cycle;Signal;HPM_P1;HPM_P2
2022/04/26 03:37:05;;;;;;;22.35;16.70;;;;;;;;;;5025173;28;20075;-59
2022/04/26 03:39:31;;;;;;;23.73;16.05;;;;;;;;;;5029029;28;20048;-58
2022/04/26 03:41:57;;;;;;;23.17;16.45;;;;;;;;;;5025413;28;20053;-59
2022/04/26 03:44:23;;;;;;;22.55;14.88;;;;;;;;;;5026065;28;20357;-59
2022/04/26 03:46:49;;;;;;;24.40;14.18;;;;;;;;;;5024237;28;20026;-58
2022/04/26 03:49:15;;;;;;;21.98;13.77;;;;;;;;;;5021286;28;20029;-58
2022/04/26 03:51:41;;;;;;;23.38;13.27;;;;;;;;;;5029114;28;20036;-58
2022/04/26 03:54:07;;;;;;;22.38;13.57;;;;;;;;;;5025024;28;20515;-59
2022/04/26 03:56:33;;;;;;;24.02;13.77;;;;;;;;;;5028238;28;20037;-57
2022/04/26 03:58:59;;;;;;;20.40;13.75;;;;;;;;;;5021566;28;20432;-58
2022/04/26 04:01:25;;;;;;;19.90;12.50;;;;;;;;;;5028862;28;20033;-58
2022/04/26 04:03:51;;;;;;;22.42;12.70;;;;;;;;;;5024708;28;20021;-56
2022/04/26 04:06:17;;;;;;;21.70;13.02;;;;;;;;;;5020797;28;20118;-58
2022/04/26 04:08:43;;;;;;;18.38;12.20;;;;;;;;;;5025271;28;20029;-57
2022/04/26 04:11:09;;;;;;;16.48;11.35;;;;;;;;;;5022161;28;20021;-58
2022/04/26 04:13:35;;;;;;;18.20;11.10;;;;;;;;;;5024015;28;20087;-58
2022/04/26 04:16:01;;;;;;;16.92;11.10;;;;;;;;;;5024870;28;20087;-57
2022/04/26 04:21:11;;;;;;;21.08;11.88;;;;;;;;;;5030029;28;20130;-56
2022/04/26 04:23:40;;;;;;;17.05;11.75;;;;;;;;;;5026597;28;20056;-57
2022/04/26 04:26:07;;;;;;;18.00;11.52;;;;;;;;;;5022013;28;20127;-57
2022/04/26 04:28:34;;;;;;;15.18;11.15;;;;;;;;;;5020909;28;20029;-58
2022/04/26 04:31:00;;;;;;;17.92;12.50;;;;;;;;;;5022891;28;20040;-57
2022/04/26 04:33:26;;;;;;;19.52;11.73;;;;;;;;;;5024159;28;20524;-58
2022/04/26 04:35:52;;;;;;;16.23;10.93;;;;;;;;;;5025355;28;20025;-57
2022/04/26 04:38:18;;;;;;;19.65;11.30;;;;;;;;;;5021078;28;20469;-57
2022/04/26 04:40:44;;;;;;;18.95;11.90;;;;;;;;;;5023277;28;20028;-56
2022/04/26 04:43:11;;;;;;;17.80;11.85;;;;;;;;;;5021089;28;20030;-57
2022/04/26 04:45:37;;;;;;;24.58;12.05;;;;;;;;;;5020907;28;20014;-57
2022/04/26 04:48:05;;;;;;;20.80;12.43;;;;;;;;;;5025479;28;20025;-57
2022/04/26 04:50:32;;;;;;;18.70;12.00;;;;;;;;;;5024568;28;20060;-57
2022/04/26 04:52:58;;;;;;;16.25;12.13;;;;;;;;;;5027208;28;20495;-57
2022/04/26 04:55:24;;;;;;;22.60;12.07;;;;;;;;;;5023439;28;20030;-57
2022/04/26 04:57:50;;;;;;;18.38;12.88;;;;;;;;;;5023986;28;20029;-56
2022/04/26 05:00:16;;;;;;;18.13;12.93;;;;;;;;;;5022125;28;20530;-56
2022/04/26 05:02:42;;;;;;;17.08;11.93;;;;;;;;;;5028796;28;20035;-57
2022/04/26 05:05:08;;;;;;;23.08;13.05;;;;;;;;;;5027757;28;20040;-56
2022/04/26 05:07:34;;;;;;;16.77;11.88;;;;;;;;;;5020182;28;20033;-57
2022/04/26 05:10:00;;;;;;;17.13;12.27;;;;;;;;;;5019601;28;20060;-56
2022/04/26 05:12:26;;;;;;;20.13;12.57;;;;;;;;;;5020765;28;20427;-57
2022/04/26 05:14:52;;;;;;;18.85;12.88;;;;;;;;;;5014920;28;20459;-57
2022/04/26 05:17:18;;;;;;;17.08;11.75;;;;;;;;;;5021407;28;20055;-55
2022/04/26 05:19:44;;;;;;;19.95;12.18;;;;;;;;;;5032406;28;20017;-57
2022/04/26 05:22:10;;;;;;;18.58;12.18;;;;;;;;;;5025311;28;20034;-55
2022/04/26 05:24:58;;;;;;;19.80;13.43;;;;;;;;;;5026952;28;20017;-56
2022/04/26 05:27:25;;;;;;;18.27;12.82;;;;;;;;;;5026908;28;20061;-56
2022/04/26 05:29:51;;;;;;;19.75;12.13;;;;;;;;;;5025404;28;20066;-55
2022/04/26 05:32:24;;;;;;;18.75;12.38;;;;;;;;;;5018620;28;20030;-56
2022/04/26 05:34:57;;;;;;;20.92;12.93;;;;;;;;;;5025021;28;20024;-58
2022/04/26 05:37:23;;;;;;;21.88;13.70;;;;;;;;;;5031438;28;20433;-57
2022/04/26 05:39:49;;;;;;;20.80;12.20;;;;;;;;;;5025537;28;20066;-58
2022/04/26 05:42:15;;;;;;;20.83;12.68;;;;;;;;;;5028236;28;20047;-56
2022/04/26 05:44:42;;;;;;;20.73;12.77;;;;;;;;;;5019498;28;20030;-56
2022/04/26 05:47:08;;;;;;;17.65;12.68;;;;;;;;;;5024922;28;20018;-56
2022/04/26 05:49:35;;;;;;;18.83;12.38;;;;;;;;;;5026220;28;20030;-57
2022/04/26 05:52:01;;;;;;;18.77;12.57;;;;;;;;;;5023607;28;20036;-56
2022/04/26 05:54:27;;;;;;;18.67;12.45;;;;;;;;;;5025158;28;20031;-56
2022/04/26 05:56:53;;;;;;;21.58;13.52;;;;;;;;;;5018190;28;20025;-57
2022/04/26 05:59:20;;;;;;;23.27;13.05;;;;;;;;;;5019634;28;20567;-57
2022/04/26 06:01:46;;;;;;;23.55;14.48;;;;;;;;;;5021194;28;20643;-56
2022/04/26 06:04:12;;;;;;;22.30;12.77;;;;;;;;;;5019177;28;20236;-56
2022/04/26 06:06:38;;;;;;;18.88;13.23;;;;;;;;;;5022673;28;20364;-56
2022/04/26 06:09:04;;;;;;;21.35;13.88;;;;;;;;;;5021000;28;20041;-56
2022/04/26 06:11:30;;;;;;;21.00;13.48;;;;;;;;;;5024031;28;20099;-58
2022/04/26 06:13:56;;;;;;;24.40;14.70;;;;;;;;;;5021831;28;20021;-56
2022/04/26 06:16:22;;;;;;;22.10;14.18;;;;;;;;;;5020717;28;20029;-57
2022/04/26 06:18:48;;;;;;;20.85;13.30;;;;;;;;;;5021120;28;20037;-57
2022/04/26 06:21:15;;;;;;;23.40;12.77;;;;;;;;;;5027918;28;20112;-57
2022/04/26 06:23:41;;;;;;;22.70;12.77;;;;;;;;;;5024686;28;20637;-56
2022/04/26 06:26:07;;;;;;;19.42;13.30;;;;;;;;;;5016662;28;20489;-57
2022/04/26 06:28:33;;;;;;;22.83;13.85;;;;;;;;;;5021380;28;20026;-57
2022/04/26 06:31:00;;;;;;;20.38;13.27;;;;;;;;;;5016326;28;20471;-58
2022/04/26 06:33:26;;;;;;;23.45;13.77;;;;;;;;;;5021335;28;20025;-58
2022/04/26 06:35:52;;;;;;;20.70;14.13;;;;;;;;;;5017865;28;20052;-57
2022/04/26 06:38:19;;;;;;;19.23;13.57;;;;;;;;;;5023389;28;20036;-57
2022/04/26 06:40:46;;;;;;;20.42;14.57;;;;;;;;;;5024245;28;20109;-57
2022/04/26 06:43:12;;;;;;;22.08;13.93;;;;;;;;;;5029073;28;20392;-58
2022/04/26 06:45:39;;;;;;;22.25;14.18;;;;;;;;;;5024323;28;20499;-57
2022/04/26 06:48:11;;;;;;;20.48;14.13;;;;;;;;;;5020292;28;20030;-57
2022/04/26 06:50:38;;;;;;;20.50;15.05;;;;;;;;;;5025992;28;20384;-57
2022/04/26 06:53:04;;;;;;;22.23;15.23;;;;;;;;;;5025630;28;20028;-57
2022/04/26 06:55:30;;;;;;;24.17;13.90;;;;;;;;;;5018897;28;20449;-55
2022/04/26 06:57:56;;;;;;;24.52;15.05;;;;;;;;;;5021444;28;20667;-57
2022/04/26 07:00:22;;;;;;;20.85;15.05;;;;;;;;;;5024094;28;20033;-57
2022/04/26 07:02:48;;;;;;;26.35;14.40;;;;;;;;;;5024628;28;20070;-55
2022/04/26 07:05:15;;;;;;;27.27;15.05;;;;;;;;;;5028360;28;20524;-57
2022/04/26 07:07:41;;;;;;;22.10;14.50;;;;;;;;;;5024426;28;20481;-56
2022/04/26 07:10:07;;;;;;;21.23;14.23;;;;;;;;;;5022633;28;20021;-56
2022/04/26 07:12:34;;;;;;;23.60;15.02;;;;;;;;;;5023801;28;20036;-57
2022/04/26 07:15:00;;;;;;;22.23;14.05;;;;;;;;;;5027300;28;20095;-57
2022/04/26 07:17:26;;;;;;;19.45;15.30;;;;;;;;;;5024795;28;20033;-57
2022/04/26 07:19:52;;;;;;;21.70;14.27;;;;;;;;;;5025156;28;20068;-57
2022/04/26 07:22:18;;;;;;;23.92;16.25;;;;;;;;;;5028472;28;20022;-57
2022/04/26 07:24:44;;;;;;;25.58;17.60;;;;;;;;;;5022965;28;20028;-56
2022/04/26 07:27:10;;;;;;;23.67;16.50;;;;;;;;;;5022295;28;20038;-57
2022/04/26 07:29:40;;;;;;;24.48;18.23;;;;;;;;;;5028626;28;20037;-56
2022/04/26 07:32:07;;;;;;;26.80;17.88;;;;;;;;;;5021916;28;20087;-57
2022/04/26 07:34:33;;;;;;;28.90;19.38;;;;;;;;;;5028957;28;20488;-57
2022/04/26 07:37:00;;;;;;;28.13;18.52;;;;;;;;;;5022358;28;20026;-57
2022/04/26 07:39:26;;;;;;;25.45;19.75;;;;;;;;;;5025952;28;20045;-57
2022/04/26 07:41:52;;;;;;;29.98;19.85;;;;;;;;;;5024885;28;20056;-57
2022/04/26 07:44:19;;;;;;;29.25;19.83;;;;;;;;;;5028100;28;20052;-57
2022/04/26 07:46:47;;;;;;;29.23;21.10;;;;;;;;;;5028862;28;20091;-56
2022/04/26 07:49:13;;;;;;;30.08;21.15;;;;;;;;;;5027236;28;20559;-57
2022/04/26 07:51:39;;;;;;;29.60;22.13;;;;;;;;;;5020302;28;20583;-57
2022/04/26 07:54:06;;;;;;;32.60;23.45;;;;;;;;;;5022284;28;20018;-56
2022/04/26 07:56:32;;;;;;;34.25;24.55;;;;;;;;;;5024926;28;20044;-57
2022/04/26 07:59:00;;;;;;;34.33;24.02;;;;;;;;;;5022452;28;20488;-57
2022/04/26 08:01:26;;;;;;;36.50;26.45;;;;;;;;;;5025279;28;20112;-57
2022/04/26 08:03:52;;;;;;;38.80;28.08;;;;;;;;;;5020797;28;20386;-57
2022/04/26 08:06:18;;;;;;;48.78;33.70;;;;;;;;;;5024492;28;20686;-57
2022/04/26 08:08:44;;;;;;;53.95;38.05;;;;;;;;;;5033825;28;20532;-56
2022/04/26 08:11:13;;;;;;;57.28;41.05;;;;;;;;;;5020580;28;20472;-56
2022/04/26 08:13:40;;;;;;;57.42;42.33;;;;;;;;;;5023941;28;20033;-56
2022/04/26 08:16:07;;;;;;;65.63;44.72;;;;;;;;;;5024582;28;20540;-57
2022/04/26 08:18:33;;;;;;;67.00;46.50;;;;;;;;;;5027202;28;20030;-56
2022/04/26 08:20:59;;;;;;;68.60;47.10;;;;;;;;;;5024996;28;20024;-57
2022/04/26 08:23:25;;;;;;;63.17;45.53;;;;;;;;;;5027301;28;20025;-56
2022/04/26 08:28:36;;;;;;;56.63;42.70;;;;;;;;;;5024858;28;20091;-57
2022/04/26 08:31:01;;;;;;;57.03;42.33;;;;;;;;;;5025690;28;20492;-57
2022/04/26 08:33:30;;;;;;;63.85;44.00;;;;;;;;;;5017426;28;20033;-56
2022/04/26 08:35:56;;;;;;;56.70;42.13;;;;;;;;;;5030804;28;20035;-55
2022/04/26 08:38:22;;;;;;;52.30;40.00;;;;;;;;;;5017583;28;20351;-57
2022/04/26 08:40:48;;;;;;;53.70;39.90;;;;;;;;;;5025326;28;20017;-57
2022/04/26 08:43:14;;;;;;;53.20;39.78;;;;;;;;;;5025260;28;20092;-57
2022/04/26 08:45:40;;;;;;;51.10;36.20;;;;;;;;;;5023162;28;20775;-56
2022/04/26 08:51:04;;;;;;;45.15;34.00;;;;;;;;;;5022538;28;20566;-56
2022/04/26 08:53:34;;;;;;;49.58;33.95;;;;;;;;;;5023950;28;20736;-57
2022/04/26 08:56:03;;;;;;;42.40;32.95;;;;;;;;;;5021871;28;20629;-56
2022/04/26 08:58:32;;;;;;;42.58;31.20;;;;;;;;;;5023199;28;20038;-57
2022/04/26 09:01:04;;;;;;;37.88;29.40;;;;;;;;;;5020869;28;20116;-57
2022/04/26 09:03:31;;;;;;;33.97;28.33;;;;;;;;;;5023309;28;20037;-57
2022/04/26 09:06:25;;;;;;;38.75;29.08;;;;;;;;;;5022585;28;20401;-58
2022/04/26 09:08:51;;;;;;;32.15;25.27;;;;;;;;;;5025394;28;20335;-56
2022/04/26 09:11:25;;;;;;;31.50;26.45;;;;;;;;;;5023291;28;20449;-56
2022/04/26 09:13:52;;;;;;;29.58;25.60;;;;;;;;;;5025994;28;20608;-57
2022/04/26 09:16:19;;;;;;;31.20;25.02;;;;;;;;;;5022729;28;20025;-57
2022/04/26 09:18:52;;;;;;;33.70;25.08;;;;;;;;;;5023153;28;20053;-57
2022/04/26 09:21:18;;;;;;;29.30;22.15;;;;;;;;;;5023501;28;20017;-57
2022/04/26 09:23:46;;;;;;;33.72;24.80;;;;;;;;;;5017767;28;20120;-56
2022/04/26 09:26:12;;;;;;;36.72;26.10;;;;;;;;;;5021474;28;20412;-56
2022/04/26 09:28:50;;;;;;;32.92;24.13;;;;;;;;;;5021114;28;20020;-57
2022/04/26 09:31:23;;;;;;;30.25;22.27;;;;;;;;;;5021944;28;20033;-57
2022/04/26 09:33:52;;;;;;;31.75;23.00;;;;;;;;;;5021545;28;20522;-56
2022/04/26 09:36:19;;;;;;;28.08;22.83;;;;;;;;;;5024000;28;20040;-57
2022/04/26 09:38:53;;;;;;;28.45;21.27;;;;;;;;;;5022698;28;20172;-57
2022/04/26 09:41:19;;;;;;;24.45;20.88;;;;;;;;;;5023457;28;20043;-56
2022/04/26 09:43:55;;;;;;;30.65;21.90;;;;;;;;;;5021901;28;20092;-56
2022/04/26 09:46:21;;;;;;;27.85;20.13;;;;;;;;;;5017877;28;20026;-57
2022/04/26 09:48:48;;;;;;;29.10;21.60;;;;;;;;;;5023160;28;20033;-58
2022/04/26 09:51:14;;;;;;;28.70;21.80;;;;;;;;;;5026015;28;20025;-56
2022/04/26 09:53:40;;;;;;;27.88;20.73;;;;;;;;;;5020198;28;20159;-58
2022/04/26 09:56:06;;;;;;;26.45;20.52;;;;;;;;;;5021291;28;20045;-58
2022/04/26 09:58:34;;;;;;;26.70;20.67;;;;;;;;;;5014529;28;20044;-58
2022/04/26 10:01:04;;;;;;;28.85;20.88;;;;;;;;;;5018103;28;20056;-57
2022/04/26 10:03:39;;;;;;;30.58;21.55;;;;;;;;;;5024143;28;20030;-58
2022/04/26 10:06:07;;;;;;;25.73;19.40;;;;;;;;;;5022996;28;20029;-57
2022/04/26 10:08:37;;;;;;;25.30;18.75;;;;;;;;;;5026786;28;20112;-57
2022/04/26 10:11:06;;;;;;;23.55;18.77;;;;;;;;;;5030155;28;20026;-57
2022/04/26 10:13:38;;;;;;;22.45;17.15;;;;;;;;;;5027170;28;20025;-57
2022/04/26 10:16:11;;;;;;;26.88;19.63;;;;;;;;;;5025409;28;20048;-57
2022/04/26 10:18:44;;;;;;;24.52;19.17;;;;;;;;;;5027821;28;20026;-57
2022/04/26 10:21:11;;;;;;;25.88;19.92;;;;;;;;;;5025345;28;20029;-57
2022/04/26 10:24:03;;;;;;;28.42;21.45;;;;;;;;;;5021498;28;20021;-57
2022/04/26 10:26:30;;;;;;;29.23;21.48;;;;;;;;;;5021378;28;20033;-58
2022/04/26 10:29:09;;;;;;;25.45;19.88;;;;;;;;;;5026557;28;20160;-58
2022/04/26 10:31:47;;;;;;;28.35;19.20;;;;;;;;;;5026125;28;20033;-57
2022/04/26 10:34:31;;;;;;;26.67;20.20;;;;;;;;;;5025764;28;20063;-58
2022/04/26 10:37:03;;;;;;;25.20;19.63;;;;;;;;;;5023438;28;20022;-57
2022/04/26 10:39:33;;;;;;;26.80;19.38;;;;;;;;;;5028691;28;20036;-58
2022/04/26 10:41:59;;;;;;;23.48;17.63;;;;;;;;;;5024776;28;20368;-57
2022/04/26 10:44:31;;;;;;;24.20;18.85;;;;;;;;;;5019717;28;20014;-56
2022/04/26 10:47:03;;;;;;;22.05;17.75;;;;;;;;;;5021017;28;20100;-57
2022/04/26 10:49:42;;;;;;;23.20;18.48;;;;;;;;;;5024922;28;20030;-58
2022/04/26 10:52:18;;;;;;;23.63;16.27;;;;;;;;;;5023650;28;20029;-57
2022/04/26 10:57:13;;;;;;;25.50;16.27;;;;;;;;;;5020358;28;20041;-58
2022/04/26 10:59:42;;;;;;;22.92;15.95;;;;;;;;;;5028187;28;20025;-58
2022/04/26 11:02:11;;;;;;;25.42;19.38;;;;;;;;;;5017994;28;20133;-58
2022/04/26 11:04:37;;;;;;;25.20;16.02;;;;;;;;;;5026178;28;20029;-57
2022/04/26 11:07:20;;;;;;;19.10;15.05;;;;;;;;;;5025120;28;20031;-57
2022/04/26 11:09:50;;;;;;;22.50;15.75;;;;;;;;;;5022226;28;20025;-58
2022/04/26 11:12:20;;;;;;;16.65;13.60;;;;;;;;;;5020956;28;20503;-58
2022/04/26 11:14:47;;;;;;;24.58;14.00;;;;;;;;;;5025280;28;20484;-58
2022/04/26 11:17:14;;;;;;;19.30;14.15;;;;;;;;;;5027075;28;20033;-58
2022/04/26 11:19:47;;;;;;;17.35;13.55;;;;;;;;;;5020638;28;20384;-58
2022/04/26 11:22:13;;;;;;;19.58;13.23;;;;;;;;;;5023659;28;20083;-58
2022/04/26 11:30:10;;;;;;;19.08;13.68;;;;;;;;;;5025043;28;20528;-58
2022/04/26 11:32:43;;;;;;;21.33;14.00;;;;;;;;;;5024415;28;20052;-58
2022/04/26 11:35:14;;;;;;;16.52;12.18;;;;;;;;;;5020944;28;20029;-59
2022/04/26 11:37:46;;;;;;;17.40;12.18;;;;;;;;;;5022951;28;20540;-59
2022/04/26 11:40:21;;;;;;;14.80;11.93;;;;;;;;;;5025471;28;20041;-58
2022/04/26 11:42:47;;;;;;;15.13;11.55;;;;;;;;;;5022562;28;20601;-57
2022/04/26 11:45:13;;;;;;;20.38;12.75;;;;;;;;;;5024501;28;20057;-58
2022/04/26 11:47:43;;;;;;;18.67;11.25;;;;;;;;;;5024855;28;20073;-58
2022/04/26 11:50:20;;;;;;;17.27;12.20;;;;;;;;;;5017134;28;20022;-58
2022/04/26 11:52:47;;;;;;;16.88;12.18;;;;;;;;;;5024124;28;20423;-58
2022/04/26 11:55:23;;;;;;;18.98;12.65;;;;;;;;;;5023770;28;20441;-58
2022/04/26 11:57:49;;;;;;;16.42;11.95;;;;;;;;;;5018998;28;20032;-58
2022/04/26 12:00:17;;;;;;;17.60;13.18;;;;;;;;;;5023576;28;20519;-57
2022/04/26 12:02:43;;;;;;;18.35;12.10;;;;;;;;;;5025084;28;20595;-58
2022/04/26 12:05:10;;;;;;;18.73;11.98;;;;;;;;;;5019413;28;20108;-58
2022/04/26 12:07:36;;;;;;;16.25;11.32;;;;;;;;;;5018302;28;20116;-57
2022/04/26 12:10:02;;;;;;;18.90;11.85;;;;;;;;;;5027273;28;20475;-57
2022/04/26 12:12:29;;;;;;;17.25;11.80;;;;;;;;;;5021074;28;20091;-57
2022/04/26 12:14:56;;;;;;;15.88;11.93;;;;;;;;;;5024386;28;20017;-59
2022/04/26 12:17:22;;;;;;;14.63;11.60;;;;;;;;;;5022484;28;20302;-58
2022/04/26 12:19:51;;;;;;;17.60;11.88;;;;;;;;;;5026462;28;20032;-57
2022/04/26 12:22:19;;;;;;;17.92;12.40;;;;;;;;;;5022260;28;20018;-57
2022/04/26 12:24:46;;;;;;;16.25;12.15;;;;;;;;;;5022567;28;20022;-58
2022/04/26 12:27:14;;;;;;;15.77;11.60;;;;;;;;;;5017585;28;20034;-59
2022/04/26 12:29:41;;;;;;;21.98;13.05;;;;;;;;;;5023512;28;20013;-58
2022/04/26 12:32:08;;;;;;;18.10;11.85;;;;;;;;;;5022183;28;20445;-57
2022/04/26 12:34:35;;;;;;;14.73;11.15;;;;;;;;;;5022148;28;20044;-58
2022/04/26 12:37:08;;;;;;;14.93;11.02;;;;;;;;;;5023118;28;20028;-58
2022/04/26 12:39:48;;;;;;;17.57;10.93;;;;;;;;;;5023563;28;20052;-57
2022/04/26 12:42:16;;;;;;;14.70;11.30;;;;;;;;;;5025142;28;20256;-59
2022/04/26 12:44:50;;;;;;;16.75;10.77;;;;;;;;;;5023144;28;20108;-58
2022/04/26 12:52:49;;;;;;;13.07;10.32;;;;;;;;;;5020897;28;20040;-58
2022/04/26 12:55:24;;;;;;;17.17;11.23;;;;;;;;;;5020052;28;20497;-58
2022/04/26 12:57:51;;;;;;;15.43;10.90;;;;;;;;;;5023165;28;20663;-58
2022/04/26 13:00:19;;;;;;;17.15;10.65;;;;;;;;;;5014219;28;20030;-58
2022/04/26 13:02:45;;;;;;;14.70;10.63;;;;;;;;;;5023410;28;20492;-58
2022/04/26 13:05:11;;;;;;;13.82;10.68;;;;;;;;;;5021729;28;20025;-58
2022/04/26 13:07:37;;;;;;;14.80;10.95;;;;;;;;;;5017475;28;20028;-57
2022/04/26 13:10:03;;;;;;;14.77;10.93;;;;;;;;;;5021319;28;20026;-57
2022/04/26 13:12:29;;;;;;;17.13;11.63;;;;;;;;;;5021161;28;20505;-58
2022/04/26 13:14:55;;;;;;;12.57;10.80;;;;;;;;;;5018218;28;20109;-57
2022/04/26 13:17:21;;;;;;;19.08;11.23;;;;;;;;;;5023878;28;20116;-58
2022/04/26 13:19:47;;;;;;;14.07;10.80;;;;;;;;;;5021986;28;20079;-59
2022/04/26 13:22:16;;;;;;;14.05;10.18;;;;;;;;;;5023008;28;20018;-58
2022/04/26 13:24:42;;;;;;;16.98;10.32;;;;;;;;;;5022107;28;20087;-59
2022/04/26 13:27:08;;;;;;;13.20;10.77;;;;;;;;;;5019151;28;20042;-58
2022/04/26 13:29:34;;;;;;;15.35;10.57;;;;;;;;;;5021137;28;20572;-58
2022/04/26 13:32:02;;;;;;;14.40;10.73;;;;;;;;;;5016178;28;20073;-57
2022/04/26 13:34:28;;;;;;;17.27;10.32;;;;;;;;;;5021495;28;20033;-58
2022/04/26 13:36:54;;;;;;;12.75;9.90;;;;;;;;;;5023587;28;20108;-58
2022/04/26 13:39:21;;;;;;;16.73;10.77;;;;;;;;;;5021476;28;20083;-58
2022/04/26 13:41:51;;;;;;;13.80;9.95;;;;;;;;;;5025486;28;20029;-57
2022/04/26 13:44:19;;;;;;;14.52;9.32;;;;;;;;;;5024274;28;20029;-58
2022/04/26 13:46:45;;;;;;;12.85;9.13;;;;;;;;;;5024259;28;20650;-58
2022/04/26 13:49:11;;;;;;;10.52;8.98;;;;;;;;;;5022936;28;20030;-58
2022/04/26 13:51:37;;;;;;;17.23;9.85;;;;;;;;;;5026046;28;20731;-58
2022/04/26 13:54:04;;;;;;;12.77;9.00;;;;;;;;;;5023381;28;20114;-57
2022/04/26 13:56:30;;;;;;;14.55;9.55;;;;;;;;;;5023325;28;20060;-59
2022/04/26 13:58:55;;;;;;;16.58;10.20;;;;;;;;;;5025296;28;20089;-57
2022/04/26 14:01:23;;;;;;;12.85;9.50;;;;;;;;;;5024779;28;20053;-57
2022/04/26 14:03:49;;;;;;;11.95;9.13;;;;;;;;;;5026095;28;20412;-58
2022/04/26 14:06:18;;;;;;;11.35;8.70;;;;;;;;;;5020223;28;20029;-57
2022/04/26 14:08:48;;;;;;;13.38;8.95;;;;;;;;;;5026005;28;20097;-58
2022/04/26 14:11:14;;;;;;;15.50;9.27;;;;;;;;;;5030197;28;20053;-56
2022/04/26 14:21:54;;;;;;;12.98;8.57;;;;;;;;;;5022822;28;20105;-58
2022/04/26 14:24:20;;;;;;;12.98;8.52;;;;;;;;;;5029335;28;20034;-58
2022/04/26 14:26:49;;;;;;;13.55;8.00;;;;;;;;;;5028095;28;20596;-57
2022/04/26 14:29:15;;;;;;;15.13;8.27;;;;;;;;;;5024602;28;20117;-58
2022/04/26 14:31:41;;;;;;;10.15;8.20;;;;;;;;;;5026268;28;20103;-57
2022/04/26 14:34:07;;;;;;;10.27;7.88;;;;;;;;;;5023204;28;21319;-58
2022/04/26 14:36:33;;;;;;;12.82;8.63;;;;;;;;;;5027317;28;20087;-57
2022/04/26 14:38:59;;;;;;;12.98;7.30;;;;;;;;;;5026733;28;20025;-58
2022/04/26 14:41:26;;;;;;;10.05;8.15;;;;;;;;;;5021462;28;20437;-58
2022/04/26 14:43:52;;;;;;;16.05;8.18;;;;;;;;;;5026157;28;20063;-58
2022/04/26 14:46:18;;;;;;;13.23;8.02;;;;;;;;;;5025883;28;20029;-58
2022/04/26 14:48:44;;;;;;;11.35;7.20;;;;;;;;;;5030642;28;20093;-57
2022/04/26 14:51:11;;;;;;;10.73;7.50;;;;;;;;;;5027277;28;20048;-58
2022/04/26 14:53:38;;;;;;;12.75;7.68;;;;;;;;;;5021309;28;20095;-58
2022/04/26 14:56:04;;;;;;;10.82;7.60;;;;;;;;;;5026579;28;20057;-58
2022/04/26 14:58:30;;;;;;;16.27;7.43;;;;;;;;;;5023055;28;20105;-58
2022/04/26 15:00:57;;;;;;;12.40;7.20;;;;;;;;;;5023820;28;20497;-57
2022/04/26 15:03:23;;;;;;;9.63;6.53;;;;;;;;;;5017598;28;20105;-58
2022/04/26 15:05:49;;;;;;;10.35;6.75;;;;;;;;;;5024635;28;20091;-59
2022/04/26 15:11:00;;;;;;;10.85;6.57;;;;;;;;;;5026205;28;20032;-58
2022/04/26 15:18:55;;;;;;;10.65;6.93;;;;;;;;;;5025287;28;20067;-57
2022/04/26 15:21:21;;;;;;;9.75;6.30;;;;;;;;;;5022566;28;20416;-58
2022/04/26 15:23:47;;;;;;;12.32;7.15;;;;;;;;;;5022978;28;20104;-58
2022/04/26 15:26:13;;;;;;;10.68;6.68;;;;;;;;;;5020328;28;20492;-58
2022/04/26 15:28:39;;;;;;;10.88;6.80;;;;;;;;;;5022430;28;20029;-57
2022/04/26 15:31:06;;;;;;;10.50;6.75;;;;;;;;;;5027789;28;20473;-58
2022/04/26 15:33:32;;;;;;;11.75;6.38;;;;;;;;;;5026525;28;20534;-57
2022/04/26 15:35:58;;;;;;;6.78;6.07;;;;;;;;;;5021275;28;20097;-57
2022/04/26 15:38:27;;;;;;;13.25;7.07;;;;;;;;;;5028078;28;20079;-57
2022/04/26 15:40:54;;;;;;;11.93;6.13;;;;;;;;;;5023520;28;20037;-58
2022/04/26 15:43:20;;;;;;;12.32;6.50;;;;;;;;;;5020942;28;20021;-58
2022/04/26 15:45:46;;;;;;;8.80;5.47;;;;;;;;;;5020321;28;20432;-57
2022/04/26 15:48:12;;;;;;;11.18;6.47;;;;;;;;;;5024178;28;20030;-58
2022/04/26 15:50:41;;;;;;;11.65;6.28;;;;;;;;;;5025008;28;20343;-57
2022/04/26 15:53:07;;;;;;;8.95;6.18;;;;;;;;;;5022934;28;20473;-57
2022/04/26 15:55:33;;;;;;;8.57;5.60;;;;;;;;;;5026952;28;20496;-58
2022/04/26 15:57:59;;;;;;;11.80;6.20;;;;;;;;;;5019684;28;20171;-58
2022/04/26 16:00:26;;;;;;;7.63;5.70;;;;;;;;;;5023657;28;20081;-58
2022/04/26 16:02:53;;;;;;;10.30;6.00;;;;;;;;;;5021334;28;20018;-57
2022/04/26 16:05:19;;;;;;;9.75;5.80;;;;;;;;;;5026699;28;20477;-57
2022/04/26 16:07:45;;;;;;;12.13;6.25;;;;;;;;;;5021232;28;20021;-59
2022/04/26 16:21:10;;;;;;;10.18;5.72;;;;;;;;;;5021416;28;20114;-59
2022/04/26 16:23:36;;;;;;;9.77;5.43;;;;;;;;;;5014909;28;20034;-57
2022/04/26 16:26:03;;;;;;;7.80;4.93;;;;;;;;;;5021754;28;20481;-57
2022/04/26 16:28:33;;;;;;;8.23;5.68;;;;;;;;;;5020897;28;20653;-58
2022/04/26 16:30:59;;;;;;;11.85;5.40;;;;;;;;;;5024619;28;20025;-58
2022/04/26 16:33:25;;;;;;;8.45;5.55;;;;;;;;;;5019793;28;20096;-58
2022/04/26 16:35:52;;;;;;;8.32;5.50;;;;;;;;;;5023426;28;20485;-58
2022/04/26 16:38:18;;;;;;;6.93;4.85;;;;;;;;;;5020666;28;20362;-58
2022/04/26 16:40:45;;;;;;;7.57;5.15;;;;;;;;;;5020784;28;20028;-57
2022/04/26 16:43:11;;;;;;;8.73;5.60;;;;;;;;;;5019180;28;20029;-58
2022/04/26 16:45:37;;;;;;;7.18;5.00;;;;;;;;;;5020898;28;20022;-59
2022/04/26 16:48:03;;;;;;;8.90;5.50;;;;;;;;;;5015811;28;20029;-58
2022/04/26 16:50:29;;;;;;;7.15;4.82;;;;;;;;;;5022568;28;20478;-57
2022/04/26 16:52:57;;;;;;;9.05;4.88;;;;;;;;;;5022075;28;20247;-57
2022/04/26 16:55:23;;;;;;;9.05;5.43;;;;;;;;;;5018584;28;20026;-57
2022/04/26 16:57:49;;;;;;;8.73;5.40;;;;;;;;;;5021990;28;20040;-58
2022/04/26 17:00:15;;;;;;;11.25;4.95;;;;;;;;;;5023311;28;20083;-57
2022/04/26 17:02:41;;;;;;;9.48;5.18;;;;;;;;;;5019418;28;20044;-59
2022/04/26 17:05:07;;;;;;;8.00;5.28;;;;;;;;;;5022657;28;20033;-58
2022/04/26 17:07:34;;;;;;;10.48;5.25;;;;;;;;;;5021130;28;20029;-57
2022/04/26 17:10:00;;;;;;;6.53;4.75;;;;;;;;;;5023878;28;20661;-58
2022/04/26 17:12:30;;;;;;;9.38;4.80;;;;;;;;;;5020746;28;20404;-59
2022/04/26 17:14:56;;;;;;;9.48;4.68;;;;;;;;;;5016679;28;20112;-58
2022/04/26 17:17:22;;;;;;;7.00;4.53;;;;;;;;;;5026276;28;20064;-57
2022/04/26 17:19:51;;;;;;;8.73;4.93;;;;;;;;;;5026706;28;20128;-57
2022/04/26 17:22:17;;;;;;;9.27;5.22;;;;;;;;;;5027507;28;20034;-57
2022/04/26 17:27:27;;;;;;;8.00;5.00;;;;;;;;;;5026524;28;20129;-57
2022/04/26 17:29:53;;;;;;;9.93;5.20;;;;;;;;;;5028204;28;20053;-57
2022/04/26 17:32:21;;;;;;;8.88;4.70;;;;;;;;;;5025859;28;20507;-57
2022/04/26 17:34:47;;;;;;;11.55;4.93;;;;;;;;;;5028718;28;20017;-58
2022/04/26 17:37:13;;;;;;;9.02;5.20;;;;;;;;;;5025477;28;20266;-56
2022/04/26 17:39:40;;;;;;;10.50;5.00;;;;;;;;;;5027213;28;20026;-56
2022/04/26 17:42:06;;;;;;;9.88;4.97;;;;;;;;;;5024720;28;20025;-58
2022/04/26 17:44:33;;;;;;;8.18;4.55;;;;;;;;;;5026826;28;20025;-58
2022/04/26 17:47:00;;;;;;;11.32;4.45;;;;;;;;;;5024065;28;20035;-58
2022/04/26 17:49:27;;;;;;;9.50;4.43;;;;;;;;;;5027137;28;20036;-58
2022/04/26 17:51:53;;;;;;;6.32;4.00;;;;;;;;;;5023530;28;20106;-57
2022/04/26 17:57:04;;;;;;;8.75;4.10;;;;;;;;;;5019614;28;20055;-58
2022/04/26 17:59:30;;;;;;;6.28;4.40;;;;;;;;;;5017001;28;20025;-57
2022/04/26 18:01:56;;;;;;;7.32;4.22;;;;;;;;;;5019043;28;20120;-58
2022/04/26 18:04:22;;;;;;;8.57;4.00;;;;;;;;;;5025513;28;20034;-57
2022/04/26 18:06:48;;;;;;;8.82;4.45;;;;;;;;;;5025275;28;20399;-57
2022/04/26 18:09:14;;;;;;;6.22;3.55;;;;;;;;;;5025611;28;20068;-58
2022/04/26 18:11:40;;;;;;;7.55;3.90;;;;;;;;;;5024371;28;20025;-58
2022/04/26 18:14:06;;;;;;;9.00;3.97;;;;;;;;;;5018468;28;20217;-57
2022/04/26 18:16:33;;;;;;;8.55;3.92;;;;;;;;;;5022397;28;20100;-57
2022/04/26 18:19:03;;;;;;;9.75;3.85;;;;;;;;;;5024925;28;20522;-58
2022/04/26 18:21:30;;;;;;;7.93;4.13;;;;;;;;;;5024686;28;20366;-58
2022/04/26 18:23:56;;;;;;;7.25;3.63;;;;;;;;;;5025905;28;20030;-57
2022/04/26 18:26:23;;;;;;;11.45;3.95;;;;;;;;;;5027730;28;20049;-58
2022/04/26 18:28:50;;;;;;;4.57;3.47;;;;;;;;;;5023134;28;20112;-57
2022/04/26 18:31:17;;;;;;;8.27;4.22;;;;;;;;;;5024319;28;20083;-58
2022/04/26 18:33:43;;;;;;;4.80;3.70;;;;;;;;;;5025928;28;20021;-58
2022/04/26 18:36:10;;;;;;;7.20;4.13;;;;;;;;;;5024116;28;20552;-57
2022/04/26 18:38:37;;;;;;;6.50;3.60;;;;;;;;;;5026594;28;20033;-58
2022/04/26 18:41:03;;;;;;;5.65;3.17;;;;;;;;;;5027462;28;20075;-57
2022/04/26 18:43:29;;;;;;;8.95;4.25;;;;;;;;;;5024776;28;20033;-57
2022/04/26 18:45:57;;;;;;;8.00;3.95;;;;;;;;;;5028070;28;20384;-57
2022/04/26 18:48:23;;;;;;;8.32;4.05;;;;;;;;;;5027990;28;20044;-57
2022/04/26 18:50:49;;;;;;;7.05;4.20;;;;;;;;;;5025531;28;20090;-58
2022/04/26 18:53:15;;;;;;;6.80;4.22;;;;;;;;;;5016759;28;20036;-56
2022/04/26 18:55:42;;;;;;;27.02;17.08;;;;;;;;;;5020826;28;20037;-57